sensor_id;sensor_type;location;lat;lon;timestamp;temperature;humidity
22364;DHT22;11349;53.412;-1.328;2023-02-24T00:00:08;5.30;99.90
22364;DHT22;11349;53.412;-1.328;2023-02-24T00:02:59;5.40;99.90
22364;DHT22;11349;53.412;-1.328;2023-02-24T00:05:33;5.60;99.90
22364;DHT22;11349;53.412;-1.328;2023-02-24T00:07:59;5.80;99.90
22364;DHT22;11349;53.412;-1.328;2023-02-24T00:10:25;5.70;99.90
22364;DHT22;11349;53.412;-1.328;2023-02-24T00:12:50;5.80;99.90
22364;DHT22;11349;53.412;-1.328;2023-02-24T00:15:18;5.80;99.90
22364;DHT22;11349;53.412;-1.328;2023-02-24T00:17:45;5.70;99.90
22364;DHT22;11349;53.412;-1.328;2023-02-24T00:20:12;5.60;99.90
22364;DHT22;11349;53.412;-1.328;2023-02-24T00:22:41;5.60;99.90
22364;DHT22;11349;53.412;-1.328;2023-02-24T00:25:09;5.70;99.90
22364;DHT22;11349;53.412;-1.328;2023-02-24T00:27:37;5.80;99.90
22364;DHT22;11349;53.412;-1.328;2023-02-24T00:30:04;5.80;99.90
22364;DHT22;11349;53.412;-1.328;2023-02-24T00:32:30;5.80;99.90
22364;DHT22;11349;53.412;-1.328;2023-02-24T00:34:56;5.80;99.90
22364;DHT22;11349;53.412;-1.328;2023-02-24T00:37:21;5.80;99.90
22364;DHT22;11349;53.412;-1.328;2023-02-24T00:39:51;5.70;99.90
22364;DHT22;11349;53.412;-1.328;2023-02-24T00:42:22;5.80;99.90
22364;DHT22;11349;53.412;-1.328;2023-02-24T00:44:47;5.80;99.90
22364;DHT22;11349;53.412;-1.328;2023-02-24T00:47:15;5.80;99.90
22364;DHT22;11349;53.412;-1.328;2023-02-24T00:49:41;5.80;99.90
22364;DHT22;11349;53.412;-1.328;2023-02-24T00:52:12;5.80;99.90
22364;DHT22;11349;53.412;-1.328;2023-02-24T00:54:39;5.90;99.90
22364;DHT22;11349;53.412;-1.328;2023-02-24T00:57:05;6.00;99.90
22364;DHT22;11349;53.412;-1.328;2023-02-24T00:59:33;6.00;99.90
22364;DHT22;11349;53.412;-1.328;2023-02-24T01:01:58;6.00;99.90
22364;DHT22;11349;53.412;-1.328;2023-02-24T01:04:24;6.00;99.90
22364;DHT22;11349;53.412;-1.328;2023-02-24T01:06:52;6.00;99.90
22364;DHT22;11349;53.412;-1.328;2023-02-24T01:09:30;6.00;99.90
22364;DHT22;11349;53.412;-1.328;2023-02-24T01:11:56;6.10;99.90
22364;DHT22;11349;53.412;-1.328;2023-02-24T01:14:44;6.20;99.90
22364;DHT22;11349;53.412;-1.328;2023-02-24T01:17:10;6.20;99.90
22364;DHT22;11349;53.412;-1.328;2023-02-24T01:19:36;6.30;99.90
22364;DHT22;11349;53.412;-1.328;2023-02-24T01:22:04;6.20;99.90
22364;DHT22;11349;53.412;-1.328;2023-02-24T01:24:32;6.20;99.90
22364;DHT22;11349;53.412;-1.328;2023-02-24T01:26:58;6.20;99.90
22364;DHT22;11349;53.412;-1.328;2023-02-24T01:29:24;6.30;99.90
22364;DHT22;11349;53.412;-1.328;2023-02-24T01:31:50;6.30;99.90
22364;DHT22;11349;53.412;-1.328;2023-02-24T01:34:17;6.40;99.90
22364;DHT22;11349;53.412;-1.328;2023-02-24T01:36:43;6.40;99.90
22364;DHT22;11349;53.412;-1.328;2023-02-24T01:39:10;6.40;99.90
22364;DHT22;11349;53.412;-1.328;2023-02-24T01:41:40;6.40;99.90
22364;DHT22;11349;53.412;-1.328;2023-02-24T01:45:01;6.40;99.90
22364;DHT22;11349;53.412;-1.328;2023-02-24T01:46:54;6.60;99.90
22364;DHT22;11349;53.412;-1.328;2023-02-24T01:49:21;6.60;99.90
22364;DHT22;11349;53.412;-1.328;2023-02-24T01:51:52;6.50;99.90
22364;DHT22;11349;53.412;-1.328;2023-02-24T01:54:21;6.50;99.90
22364;DHT22;11349;53.412;-1.328;2023-02-24T01:56:49;6.40;99.90
22364;DHT22;11349;53.412;-1.328;2023-02-24T01:59:15;6.40;99.90
22364;DHT22;11349;53.412;-1.328;2023-02-24T02:01:43;6.40;99.90
22364;DHT22;11349;53.412;-1.328;2023-02-24T02:06:54;6.50;99.90
22364;DHT22;11349;53.412;-1.328;2023-02-24T02:09:21;6.60;99.90
22364;DHT22;11349;53.412;-1.328;2023-02-24T02:11:47;6.60;99.90
22364;DHT22;11349;53.412;-1.328;2023-02-24T02:14:19;6.60;99.90
22364;DHT22;11349;53.412;-1.328;2023-02-24T02:24:55;6.60;99.90
22364;DHT22;11349;53.412;-1.328;2023-02-24T02:27:27;6.60;99.90
22364;DHT22;11349;53.412;-1.328;2023-02-24T02:35:18;6.70;99.90
22364;DHT22;11349;53.412;-1.328;2023-02-24T02:38:03;6.80;99.90
22364;DHT22;11349;53.412;-1.328;2023-02-24T02:40:52;6.80;99.90
22364;DHT22;11349;53.412;-1.328;2023-02-24T02:43:32;6.80;99.90
22364;DHT22;11349;53.412;-1.328;2023-02-24T02:46:11;6.90;99.90
22364;DHT22;11349;53.412;-1.328;2023-02-24T02:48:45;6.90;99.90
22364;DHT22;11349;53.412;-1.328;2023-02-24T02:51:16;6.90;99.90
22364;DHT22;11349;53.412;-1.328;2023-02-24T02:56:41;6.90;99.90
22364;DHT22;11349;53.412;-1.328;2023-02-24T02:59:10;6.90;99.90
22364;DHT22;11349;53.412;-1.328;2023-02-24T03:01:40;6.90;99.90
22364;DHT22;11349;53.412;-1.328;2023-02-24T03:04:10;6.90;99.90
22364;DHT22;11349;53.412;-1.328;2023-02-24T03:06:45;7.00;99.90
22364;DHT22;11349;53.412;-1.328;2023-02-24T03:09:29;7.00;99.90
22364;DHT22;11349;53.412;-1.328;2023-02-24T03:12:07;7.00;99.90
22364;DHT22;11349;53.412;-1.328;2023-02-24T03:14:37;7.00;99.90
22364;DHT22;11349;53.412;-1.328;2023-02-24T03:17:07;7.10;99.90
22364;DHT22;11349;53.412;-1.328;2023-02-24T03:19:37;7.10;99.90
22364;DHT22;11349;53.412;-1.328;2023-02-24T03:22:14;7.20;99.90
22364;DHT22;11349;53.412;-1.328;2023-02-24T03:24:43;7.10;99.90
22364;DHT22;11349;53.412;-1.328;2023-02-24T03:27:18;7.10;99.90
22364;DHT22;11349;53.412;-1.328;2023-02-24T03:29:54;7.10;99.90
22364;DHT22;11349;53.412;-1.328;2023-02-24T03:32:30;7.10;99.90
22364;DHT22;11349;53.412;-1.328;2023-02-24T03:35:10;7.10;99.90
22364;DHT22;11349;53.412;-1.328;2023-02-24T03:37:38;7.20;99.90
22364;DHT22;11349;53.412;-1.328;2023-02-24T03:40:11;7.20;99.90
22364;DHT22;11349;53.412;-1.328;2023-02-24T03:42:53;7.20;99.90
22364;DHT22;11349;53.412;-1.328;2023-02-24T03:45:22;7.30;99.90
22364;DHT22;11349;53.412;-1.328;2023-02-24T03:47:49;7.30;99.90
22364;DHT22;11349;53.412;-1.328;2023-02-24T03:50:18;7.20;99.90
22364;DHT22;11349;53.412;-1.328;2023-02-24T04:06:08;7.20;99.90
22364;DHT22;11349;53.412;-1.328;2023-02-24T04:14:16;7.20;99.90
22364;DHT22;11349;53.412;-1.328;2023-02-24T04:16:55;7.20;99.90
22364;DHT22;11349;53.412;-1.328;2023-02-24T04:19:26;7.20;99.90
22364;DHT22;11349;53.412;-1.328;2023-02-24T04:21:54;7.30;99.90
22364;DHT22;11349;53.412;-1.328;2023-02-24T04:24:26;7.30;99.90
22364;DHT22;11349;53.412;-1.328;2023-02-24T04:26:56;7.50;99.90
22364;DHT22;11349;53.412;-1.328;2023-02-24T04:29:25;7.50;99.90
22364;DHT22;11349;53.412;-1.328;2023-02-24T04:32:09;7.50;99.90
22364;DHT22;11349;53.412;-1.328;2023-02-24T04:34:35;7.60;99.90
22364;DHT22;11349;53.412;-1.328;2023-02-24T04:37:04;7.50;99.90
22364;DHT22;11349;53.412;-1.328;2023-02-24T04:39:30;7.50;99.90
22364;DHT22;11349;53.412;-1.328;2023-02-24T04:41:56;7.50;99.90
22364;DHT22;11349;53.412;-1.328;2023-02-24T04:44:22;7.50;99.90
22364;DHT22;11349;53.412;-1.328;2023-02-24T04:46:50;7.50;99.90
22364;DHT22;11349;53.412;-1.328;2023-02-24T04:49:16;7.60;99.90
22364;DHT22;11349;53.412;-1.328;2023-02-24T04:51:43;7.50;99.90
22364;DHT22;11349;53.412;-1.328;2023-02-24T04:54:10;7.60;99.90
22364;DHT22;11349;53.412;-1.328;2023-02-24T04:56:38;7.50;99.90
22364;DHT22;11349;53.412;-1.328;2023-02-24T04:59:05;7.50;99.90
22364;DHT22;11349;53.412;-1.328;2023-02-24T05:01:31;7.50;99.90
22364;DHT22;11349;53.412;-1.328;2023-02-24T05:03:57;7.50;99.90
22364;DHT22;11349;53.412;-1.328;2023-02-24T05:06:24;7.50;99.90
22364;DHT22;11349;53.412;-1.328;2023-02-24T05:08:50;7.60;99.90
22364;DHT22;11349;53.412;-1.328;2023-02-24T05:11:17;7.60;99.90
22364;DHT22;11349;53.412;-1.328;2023-02-24T05:13:43;7.50;99.90
22364;DHT22;11349;53.412;-1.328;2023-02-24T05:16:14;7.60;99.90
22364;DHT22;11349;53.412;-1.328;2023-02-24T05:18:41;7.60;99.90
22364;DHT22;11349;53.412;-1.328;2023-02-24T05:21:12;7.60;99.90
22364;DHT22;11349;53.412;-1.328;2023-02-24T05:23:57;7.60;99.90
22364;DHT22;11349;53.412;-1.328;2023-02-24T05:26:24;7.60;99.90
22364;DHT22;11349;53.412;-1.328;2023-02-24T05:28:52;7.50;99.90
22364;DHT22;11349;53.412;-1.328;2023-02-24T05:31:21;7.60;99.90
22364;DHT22;11349;53.412;-1.328;2023-02-24T05:34:01;7.50;99.90
22364;DHT22;11349;53.412;-1.328;2023-02-24T05:36:30;7.60;99.90
22364;DHT22;11349;53.412;-1.328;2023-02-24T05:38:57;7.50;99.90
22364;DHT22;11349;53.412;-1.328;2023-02-24T05:41:25;7.60;99.90
22364;DHT22;11349;53.412;-1.328;2023-02-24T05:43:58;7.50;99.90
22364;DHT22;11349;53.412;-1.328;2023-02-24T05:46:28;7.50;99.90
22364;DHT22;11349;53.412;-1.328;2023-02-24T05:48:59;7.50;99.90
22364;DHT22;11349;53.412;-1.328;2023-02-24T05:51:32;7.50;99.90
22364;DHT22;11349;53.412;-1.328;2023-02-24T05:54:06;7.50;99.90
22364;DHT22;11349;53.412;-1.328;2023-02-24T05:56:37;7.50;99.90
22364;DHT22;11349;53.412;-1.328;2023-02-24T05:59:05;7.60;99.90
22364;DHT22;11349;53.412;-1.328;2023-02-24T06:01:37;7.50;99.90
22364;DHT22;11349;53.412;-1.328;2023-02-24T06:04:06;7.50;99.90
22364;DHT22;11349;53.412;-1.328;2023-02-24T06:06:39;7.50;99.90
22364;DHT22;11349;53.412;-1.328;2023-02-24T06:09:08;7.50;99.90
22364;DHT22;11349;53.412;-1.328;2023-02-24T06:11:40;7.60;99.90
22364;DHT22;11349;53.412;-1.328;2023-02-24T06:14:07;7.60;99.90
22364;DHT22;11349;53.412;-1.328;2023-02-24T06:16:35;7.50;99.90
22364;DHT22;11349;53.412;-1.328;2023-02-24T06:19:02;7.50;99.90
22364;DHT22;11349;53.412;-1.328;2023-02-24T06:21:29;7.50;99.90
22364;DHT22;11349;53.412;-1.328;2023-02-24T06:23:56;7.50;99.90
22364;DHT22;11349;53.412;-1.328;2023-02-24T06:26:23;7.60;99.90
22364;DHT22;11349;53.412;-1.328;2023-02-24T06:28:51;7.60;99.90
22364;DHT22;11349;53.412;-1.328;2023-02-24T06:31:18;7.60;99.90
22364;DHT22;11349;53.412;-1.328;2023-02-24T06:33:45;7.60;99.90
22364;DHT22;11349;53.412;-1.328;2023-02-24T06:36:12;7.60;99.90
22364;DHT22;11349;53.412;-1.328;2023-02-24T06:38:39;7.60;99.90
22364;DHT22;11349;53.412;-1.328;2023-02-24T06:41:06;7.60;99.90
22364;DHT22;11349;53.412;-1.328;2023-02-24T06:43:44;7.60;99.90
22364;DHT22;11349;53.412;-1.328;2023-02-24T06:46:14;7.50;99.90
22364;DHT22;11349;53.412;-1.328;2023-02-24T06:48:40;7.60;99.90
22364;DHT22;11349;53.412;-1.328;2023-02-24T06:51:11;7.60;99.90
22364;DHT22;11349;53.412;-1.328;2023-02-24T06:53:41;7.50;99.90
22364;DHT22;11349;53.412;-1.328;2023-02-24T06:56:12;7.50;99.90
22364;DHT22;11349;53.412;-1.328;2023-02-24T06:58:46;7.50;99.90
22364;DHT22;11349;53.412;-1.328;2023-02-24T07:01:14;7.50;99.90
22364;DHT22;11349;53.412;-1.328;2023-02-24T07:03:40;7.50;99.90
22364;DHT22;11349;53.412;-1.328;2023-02-24T07:06:12;7.50;99.90
22364;DHT22;11349;53.412;-1.328;2023-02-24T07:09:08;7.50;99.90
22364;DHT22;11349;53.412;-1.328;2023-02-24T07:11:36;7.60;99.90
22364;DHT22;11349;53.412;-1.328;2023-02-24T07:14:03;7.60;99.90
22364;DHT22;11349;53.412;-1.328;2023-02-24T07:16:32;7.60;99.90
22364;DHT22;11349;53.412;-1.328;2023-02-24T07:19:06;7.70;99.90
22364;DHT22;11349;53.412;-1.328;2023-02-24T07:21:42;7.70;99.90
22364;DHT22;11349;53.412;-1.328;2023-02-24T07:24:13;7.70;99.90
22364;DHT22;11349;53.412;-1.328;2023-02-24T07:26:44;7.80;99.90
22364;DHT22;11349;53.412;-1.328;2023-02-24T07:29:16;7.80;99.90
22364;DHT22;11349;53.412;-1.328;2023-02-24T07:31:43;7.80;99.90
22364;DHT22;11349;53.412;-1.328;2023-02-24T07:34:08;7.90;99.90
22364;DHT22;11349;53.412;-1.328;2023-02-24T07:36:34;7.90;99.90
22364;DHT22;11349;53.412;-1.328;2023-02-24T07:39:15;7.90;99.90
22364;DHT22;11349;53.412;-1.328;2023-02-24T07:41:41;8.00;99.90
22364;DHT22;11349;53.412;-1.328;2023-02-24T07:44:10;8.00;99.90
22364;DHT22;11349;53.412;-1.328;2023-02-24T07:46:36;8.10;99.90
22364;DHT22;11349;53.412;-1.328;2023-02-24T07:49:03;8.10;99.90
22364;DHT22;11349;53.412;-1.328;2023-02-24T07:51:29;8.10;99.90
22364;DHT22;11349;53.412;-1.328;2023-02-24T07:53:59;8.20;99.90
22364;DHT22;11349;53.412;-1.328;2023-02-24T07:56:27;8.20;99.90
22364;DHT22;11349;53.412;-1.328;2023-02-24T07:58:58;8.20;99.90
22364;DHT22;11349;53.412;-1.328;2023-02-24T08:01:25;8.30;99.90
22364;DHT22;11349;53.412;-1.328;2023-02-24T08:03:55;8.30;99.90
22364;DHT22;11349;53.412;-1.328;2023-02-24T08:06:22;8.40;99.90
22364;DHT22;11349;53.412;-1.328;2023-02-24T08:09:07;8.40;99.90
22364;DHT22;11349;53.412;-1.328;2023-02-24T08:11:56;8.50;99.90
22364;DHT22;11349;53.412;-1.328;2023-02-24T08:14:27;8.60;99.90
22364;DHT22;11349;53.412;-1.328;2023-02-24T08:16:58;8.60;99.90
22364;DHT22;11349;53.412;-1.328;2023-02-24T08:19:26;8.60;99.90
22364;DHT22;11349;53.412;-1.328;2023-02-24T08:21:59;8.70;99.90
22364;DHT22;11349;53.412;-1.328;2023-02-24T08:24:47;8.80;99.90
22364;DHT22;11349;53.412;-1.328;2023-02-24T08:27:16;8.80;99.90
22364;DHT22;11349;53.412;-1.328;2023-02-24T08:29:49;8.90;99.90
22364;DHT22;11349;53.412;-1.328;2023-02-24T08:32:32;8.90;99.90
22364;DHT22;11349;53.412;-1.328;2023-02-24T08:35:05;9.00;99.90
22364;DHT22;11349;53.412;-1.328;2023-02-24T08:37:34;8.90;99.90
22364;DHT22;11349;53.412;-1.328;2023-02-24T08:40:17;9.00;99.90
22364;DHT22;11349;53.412;-1.328;2023-02-24T08:43:08;9.10;99.90
22364;DHT22;11349;53.412;-1.328;2023-02-24T08:51:18;9.20;99.90
22364;DHT22;11349;53.412;-1.328;2023-02-24T08:53:47;9.20;99.90
22364;DHT22;11349;53.412;-1.328;2023-02-24T08:56:15;9.30;99.90
22364;DHT22;11349;53.412;-1.328;2023-02-24T08:59:06;9.30;99.90
22364;DHT22;11349;53.412;-1.328;2023-02-24T09:01:38;9.40;99.90
22364;DHT22;11349;53.412;-1.328;2023-02-24T09:04:06;9.40;99.90
22364;DHT22;11349;53.412;-1.328;2023-02-24T09:06:45;9.40;99.90
22364;DHT22;11349;53.412;-1.328;2023-02-24T09:09:16;9.40;99.90
22364;DHT22;11349;53.412;-1.328;2023-02-24T09:11:44;9.40;99.90
22364;DHT22;11349;53.412;-1.328;2023-02-24T09:14:16;9.50;99.90
22364;DHT22;11349;53.412;-1.328;2023-02-24T09:16:46;9.60;99.90
22364;DHT22;11349;53.412;-1.328;2023-02-24T09:19:42;9.50;99.90
22364;DHT22;11349;53.412;-1.328;2023-02-24T09:22:24;9.70;99.90
22364;DHT22;11349;53.412;-1.328;2023-02-24T09:25:08;9.70;99.90
22364;DHT22;11349;53.412;-1.328;2023-02-24T09:27:58;9.80;99.90
22364;DHT22;11349;53.412;-1.328;2023-02-24T09:30:34;9.80;99.90
22364;DHT22;11349;53.412;-1.328;2023-02-24T09:33:14;9.70;99.90
22364;DHT22;11349;53.412;-1.328;2023-02-24T09:35:59;9.50;99.90
22364;DHT22;11349;53.412;-1.328;2023-02-24T09:38:56;9.50;99.90
22364;DHT22;11349;53.412;-1.328;2023-02-24T09:44:05;9.20;99.90
22364;DHT22;11349;53.412;-1.328;2023-02-24T09:46:56;9.10;99.90
22364;DHT22;11349;53.412;-1.328;2023-02-24T09:49:32;9.10;99.90
22364;DHT22;11349;53.412;-1.328;2023-02-24T09:52:15;9.10;99.90
22364;DHT22;11349;53.412;-1.328;2023-02-24T09:54:48;9.10;99.90
22364;DHT22;11349;53.412;-1.328;2023-02-24T10:01:13;9.30;99.90
22364;DHT22;11349;53.412;-1.328;2023-02-24T10:07:01;9.50;99.90
22364;DHT22;11349;53.412;-1.328;2023-02-24T10:09:40;9.40;99.90
22364;DHT22;11349;53.412;-1.328;2023-02-24T10:15:08;9.50;99.90
22364;DHT22;11349;53.412;-1.328;2023-02-24T10:21:02;9.50;99.90
22364;DHT22;11349;53.412;-1.328;2023-02-24T10:26:45;9.80;99.90
22364;DHT22;11349;53.412;-1.328;2023-02-24T10:31:54;9.60;99.90
22364;DHT22;11349;53.412;-1.328;2023-02-24T10:34:25;9.60;99.90
22364;DHT22;11349;53.412;-1.328;2023-02-24T10:37:02;9.90;99.90
22364;DHT22;11349;53.412;-1.328;2023-02-24T10:39:35;9.90;99.90
22364;DHT22;11349;53.412;-1.328;2023-02-24T10:42:03;10.00;99.90
22364;DHT22;11349;53.412;-1.328;2023-02-24T10:44:46;10.00;99.90
22364;DHT22;11349;53.412;-1.328;2023-02-24T10:47:30;10.10;99.90
22364;DHT22;11349;53.412;-1.328;2023-02-24T10:50:00;10.30;99.90
22364;DHT22;11349;53.412;-1.328;2023-02-24T10:52:42;10.40;99.90
22364;DHT22;11349;53.412;-1.328;2023-02-24T10:58:33;9.90;99.90
22364;DHT22;11349;53.412;-1.328;2023-02-24T11:01:36;10.10;99.90
22364;DHT22;11349;53.412;-1.328;2023-02-24T11:04:19;10.00;99.90
22364;DHT22;11349;53.412;-1.328;2023-02-24T11:07:06;9.90;99.90
22364;DHT22;11349;53.412;-1.328;2023-02-24T11:09:37;9.90;99.90
22364;DHT22;11349;53.412;-1.328;2023-02-24T11:12:20;10.00;99.90
22364;DHT22;11349;53.412;-1.328;2023-02-24T11:15:33;10.00;99.90
22364;DHT22;11349;53.412;-1.328;2023-02-24T11:18:23;10.00;99.90
22364;DHT22;11349;53.412;-1.328;2023-02-24T11:21:00;10.10;99.90
22364;DHT22;11349;53.412;-1.328;2023-02-24T11:23:27;9.90;99.90
22364;DHT22;11349;53.412;-1.328;2023-02-24T11:26:15;10.00;99.90
22364;DHT22;11349;53.412;-1.328;2023-02-24T11:28:51;10.10;99.90
22364;DHT22;11349;53.412;-1.328;2023-02-24T11:34:09;10.20;99.90
22364;DHT22;11349;53.412;-1.328;2023-02-24T11:36:54;10.20;99.90
22364;DHT22;11349;53.412;-1.328;2023-02-24T11:42:10;10.30;99.90
22364;DHT22;11349;53.412;-1.328;2023-02-24T11:44:54;10.40;99.90
22364;DHT22;11349;53.412;-1.328;2023-02-24T11:47:30;10.50;99.90
22364;DHT22;11349;53.412;-1.328;2023-02-24T11:52:55;10.50;99.90
22364;DHT22;11349;53.412;-1.328;2023-02-24T11:55:48;10.60;99.90
22364;DHT22;11349;53.412;-1.328;2023-02-24T11:58:43;10.40;99.90
22364;DHT22;11349;53.412;-1.328;2023-02-24T12:03:58;10.70;99.90
22364;DHT22;11349;53.412;-1.328;2023-02-24T12:06:35;10.70;99.90
22364;DHT22;11349;53.412;-1.328;2023-02-24T12:09:09;10.90;99.90
22364;DHT22;11349;53.412;-1.328;2023-02-24T12:12:05;10.60;99.90
22364;DHT22;11349;53.412;-1.328;2023-02-24T12:14:40;10.90;99.90
22364;DHT22;11349;53.412;-1.328;2023-02-24T12:20:03;10.80;99.90
22364;DHT22;11349;53.412;-1.328;2023-02-24T12:23:04;10.70;99.90
22364;DHT22;11349;53.412;-1.328;2023-02-24T12:25:43;10.80;99.90
22364;DHT22;11349;53.412;-1.328;2023-02-24T12:28:32;10.80;99.90
22364;DHT22;11349;53.412;-1.328;2023-02-24T12:37:04;10.60;99.90
22364;DHT22;11349;53.412;-1.328;2023-02-24T12:42:19;10.70;99.90
22364;DHT22;11349;53.412;-1.328;2023-02-24T12:53:32;10.20;99.90
22364;DHT22;11349;53.412;-1.328;2023-02-24T12:58:38;10.10;99.90
22364;DHT22;11349;53.412;-1.328;2023-02-24T13:04:29;10.60;99.90
22364;DHT22;11349;53.412;-1.328;2023-02-24T13:07:06;10.70;99.90
22364;DHT22;11349;53.412;-1.328;2023-02-24T13:09:55;10.40;99.90
22364;DHT22;11349;53.412;-1.328;2023-02-24T13:12:38;10.30;99.90
22364;DHT22;11349;53.412;-1.328;2023-02-24T13:15:06;10.20;99.90
22364;DHT22;11349;53.412;-1.328;2023-02-24T13:17:46;10.20;99.90
22364;DHT22;11349;53.412;-1.328;2023-02-24T13:20:24;10.30;99.90
22364;DHT22;11349;53.412;-1.328;2023-02-24T13:22:51;10.30;99.90
22364;DHT22;11349;53.412;-1.328;2023-02-24T13:25:19;10.30;99.90
22364;DHT22;11349;53.412;-1.328;2023-02-24T13:28:18;10.40;99.90
22364;DHT22;11349;53.412;-1.328;2023-02-24T13:31:01;10.60;99.90
22364;DHT22;11349;53.412;-1.328;2023-02-24T13:33:38;10.60;99.90
22364;DHT22;11349;53.412;-1.328;2023-02-24T13:36:15;10.60;99.90
22364;DHT22;11349;53.412;-1.328;2023-02-24T13:38:44;10.20;99.90
22364;DHT22;11349;53.412;-1.328;2023-02-24T13:41:38;10.50;99.90
22364;DHT22;11349;53.412;-1.328;2023-02-24T14:02:47;9.70;99.90
22364;DHT22;11349;53.412;-1.328;2023-02-24T14:05:26;9.60;99.90
22364;DHT22;11349;53.412;-1.328;2023-02-24T14:07:54;9.60;99.90
22364;DHT22;11349;53.412;-1.328;2023-02-24T14:10:26;9.70;99.90
22364;DHT22;11349;53.412;-1.328;2023-02-24T14:13:22;9.60;99.90
22364;DHT22;11349;53.412;-1.328;2023-02-24T14:15:52;9.60;99.90
22364;DHT22;11349;53.412;-1.328;2023-02-24T14:18:27;9.70;99.90
22364;DHT22;11349;53.412;-1.328;2023-02-24T14:20:54;9.80;99.90
22364;DHT22;11349;53.412;-1.328;2023-02-24T14:23:27;9.70;99.90
22364;DHT22;11349;53.412;-1.328;2023-02-24T14:26:05;9.80;99.90
22364;DHT22;11349;53.412;-1.328;2023-02-24T14:28:35;9.80;99.90
22364;DHT22;11349;53.412;-1.328;2023-02-24T14:31:09;9.80;99.90
22364;DHT22;11349;53.412;-1.328;2023-02-24T14:33:36;9.90;99.90
22364;DHT22;11349;53.412;-1.328;2023-02-24T14:36:05;9.90;99.90
22364;DHT22;11349;53.412;-1.328;2023-02-24T14:41:01;10.00;99.90
22364;DHT22;11349;53.412;-1.328;2023-02-24T14:43:26;9.70;99.90
22364;DHT22;11349;53.412;-1.328;2023-02-24T14:45:53;9.90;99.90
22364;DHT22;11349;53.412;-1.328;2023-02-24T14:48:26;9.90;99.90
22364;DHT22;11349;53.412;-1.328;2023-02-24T14:51:06;9.90;99.90
22364;DHT22;11349;53.412;-1.328;2023-02-24T14:53:38;10.00;99.90
22364;DHT22;11349;53.412;-1.328;2023-02-24T14:56:07;9.90;99.90
22364;DHT22;11349;53.412;-1.328;2023-02-24T14:58:53;10.00;99.90
22364;DHT22;11349;53.412;-1.328;2023-02-24T15:01:34;9.90;99.90
22364;DHT22;11349;53.412;-1.328;2023-02-24T15:04:14;9.90;99.90
22364;DHT22;11349;53.412;-1.328;2023-02-24T15:06:48;9.90;99.90
22364;DHT22;11349;53.412;-1.328;2023-02-24T15:09:22;9.90;99.90
22364;DHT22;11349;53.412;-1.328;2023-02-24T15:11:51;9.60;99.90
22364;DHT22;11349;53.412;-1.328;2023-02-24T15:16:51;9.50;99.90
22364;DHT22;11349;53.412;-1.328;2023-02-24T15:21:52;9.50;99.90
22364;DHT22;11349;53.412;-1.328;2023-02-24T15:24:24;9.50;99.90
22364;DHT22;11349;53.412;-1.328;2023-02-24T15:26:56;9.40;99.90
22364;DHT22;11349;53.412;-1.328;2023-02-24T15:29:41;9.70;99.90
22364;DHT22;11349;53.412;-1.328;2023-02-24T15:32:20;9.60;99.90
22364;DHT22;11349;53.412;-1.328;2023-02-24T15:34:47;9.40;99.90
22364;DHT22;11349;53.412;-1.328;2023-02-24T15:37:22;9.50;99.90
22364;DHT22;11349;53.412;-1.328;2023-02-24T15:39:50;9.20;99.90
22364;DHT22;11349;53.412;-1.328;2023-02-24T15:42:30;9.10;99.90
22364;DHT22;11349;53.412;-1.328;2023-02-24T15:45:00;9.10;99.90
22364;DHT22;11349;53.412;-1.328;2023-02-24T15:47:29;9.00;99.90
22364;DHT22;11349;53.412;-1.328;2023-02-24T15:49:57;9.10;99.90
22364;DHT22;11349;53.412;-1.328;2023-02-24T15:52:26;9.10;99.90
22364;DHT22;11349;53.412;-1.328;2023-02-24T15:54:53;9.20;99.90
22364;DHT22;11349;53.412;-1.328;2023-02-24T15:57:19;9.30;99.90
22364;DHT22;11349;53.412;-1.328;2023-02-24T15:59:45;9.00;99.90
22364;DHT22;11349;53.412;-1.328;2023-02-24T16:02:17;8.90;99.90
22364;DHT22;11349;53.412;-1.328;2023-02-24T16:04:44;8.80;99.90
22364;DHT22;11349;53.412;-1.328;2023-02-24T16:07:16;8.80;99.90
22364;DHT22;11349;53.412;-1.328;2023-02-24T16:09:42;8.70;99.90
22364;DHT22;11349;53.412;-1.328;2023-02-24T16:12:14;8.70;99.90
22364;DHT22;11349;53.412;-1.328;2023-02-24T16:14:41;8.50;99.90
22364;DHT22;11349;53.412;-1.328;2023-02-24T16:17:27;8.60;99.90
22364;DHT22;11349;53.412;-1.328;2023-02-24T16:19:54;8.50;99.90
22364;DHT22;11349;53.412;-1.328;2023-02-24T16:22:22;8.50;99.90
22364;DHT22;11349;53.412;-1.328;2023-02-24T16:24:47;8.50;99.90
22364;DHT22;11349;53.412;-1.328;2023-02-24T16:27:15;8.50;99.90
22364;DHT22;11349;53.412;-1.328;2023-02-24T16:29:42;8.40;99.90
22364;DHT22;11349;53.412;-1.328;2023-02-24T16:32:12;8.60;99.90
22364;DHT22;11349;53.412;-1.328;2023-02-24T16:34:38;8.60;99.90
22364;DHT22;11349;53.412;-1.328;2023-02-24T16:37:19;8.70;99.90
22364;DHT22;11349;53.412;-1.328;2023-02-24T16:39:45;8.40;99.90
22364;DHT22;11349;53.412;-1.328;2023-02-24T16:42:12;8.30;99.90
22364;DHT22;11349;53.412;-1.328;2023-02-24T16:44:37;8.30;99.90
22364;DHT22;11349;53.412;-1.328;2023-02-24T16:47:05;8.30;99.90
22364;DHT22;11349;53.412;-1.328;2023-02-24T16:49:31;8.20;99.90
22364;DHT22;11349;53.412;-1.328;2023-02-24T16:51:57;8.20;99.90
22364;DHT22;11349;53.412;-1.328;2023-02-24T16:54:23;8.10;99.90
22364;DHT22;11349;53.412;-1.328;2023-02-24T16:56:55;8.20;99.90
22364;DHT22;11349;53.412;-1.328;2023-02-24T16:59:21;8.10;99.90
22364;DHT22;11349;53.412;-1.328;2023-02-24T17:01:47;8.00;99.90
22364;DHT22;11349;53.412;-1.328;2023-02-24T17:04:12;8.10;99.90
22364;DHT22;11349;53.412;-1.328;2023-02-24T17:06:39;8.20;99.90
22364;DHT22;11349;53.412;-1.328;2023-02-24T17:09:05;8.10;99.90
22364;DHT22;11349;53.412;-1.328;2023-02-24T17:11:32;7.90;99.90
22364;DHT22;11349;53.412;-1.328;2023-02-24T17:13:58;8.00;99.90
22364;DHT22;11349;53.412;-1.328;2023-02-24T17:16:24;8.00;99.90
22364;DHT22;11349;53.412;-1.328;2023-02-24T17:18:49;8.00;99.90
22364;DHT22;11349;53.412;-1.328;2023-02-24T17:21:16;7.60;99.90
22364;DHT22;11349;53.412;-1.328;2023-02-24T17:23:42;7.60;99.90
22364;DHT22;11349;53.412;-1.328;2023-02-24T17:26:13;7.50;99.90
22364;DHT22;11349;53.412;-1.328;2023-02-24T17:28:40;7.40;99.90
22364;DHT22;11349;53.412;-1.328;2023-02-24T17:31:05;7.40;99.90
22364;DHT22;11349;53.412;-1.328;2023-02-24T17:33:32;7.50;99.90
22364;DHT22;11349;53.412;-1.328;2023-02-24T17:35:58;7.40;99.90
22364;DHT22;11349;53.412;-1.328;2023-02-24T17:38:24;7.20;99.90
22364;DHT22;11349;53.412;-1.328;2023-02-24T17:40:50;7.30;99.90
22364;DHT22;11349;53.412;-1.328;2023-02-24T17:43:16;7.20;99.90
22364;DHT22;11349;53.412;-1.328;2023-02-24T17:45:44;7.20;99.90
22364;DHT22;11349;53.412;-1.328;2023-02-24T17:48:11;7.20;99.90
22364;DHT22;11349;53.412;-1.328;2023-02-24T17:50:41;7.10;99.90
22364;DHT22;11349;53.412;-1.328;2023-02-24T17:53:07;7.00;99.90
22364;DHT22;11349;53.412;-1.328;2023-02-24T17:55:33;7.10;99.90
22364;DHT22;11349;53.412;-1.328;2023-02-24T17:57:59;7.00;99.90
22364;DHT22;11349;53.412;-1.328;2023-02-24T18:00:25;6.90;99.90
22364;DHT22;11349;53.412;-1.328;2023-02-24T18:02:54;6.90;99.90
22364;DHT22;11349;53.412;-1.328;2023-02-24T18:05:20;6.70;99.90
22364;DHT22;11349;53.412;-1.328;2023-02-24T18:07:45;6.80;99.90
22364;DHT22;11349;53.412;-1.328;2023-02-24T18:10:11;6.80;99.90
22364;DHT22;11349;53.412;-1.328;2023-02-24T18:12:37;6.80;99.90